sensor_id;sensor_type;location;lat;lon;timestamp;pressure;altitude;pressure_sealevel;temperature;humidity
77867;BME280;67271;59.120;37.970;2023-05-07T00:05:17;100960.28;;;-0.99;59.56
77867;BME280;67271;59.120;37.970;2023-05-07T00:07:43;100968.25;;;-0.99;59.24
77867;BME280;67271;59.120;37.970;2023-05-07T00:10:10;100963.81;;;-0.99;59.78
77867;BME280;67271;59.120;37.970;2023-05-07T00:12:38;100972.81;;;-1.01;59.45
77867;BME280;67271;59.120;37.970;2023-05-07T00:15:04;100972.72;;;-1.00;59.39
77867;BME280;67271;59.120;37.970;2023-05-07T00:17:32;100967.41;;;-1.00;59.73
77867;BME280;67271;59.120;37.970;2023-05-07T00:19:58;100973.78;;;-1.02;59.61
77867;BME280;67271;59.120;37.970;2023-05-07T00:22:24;100976.53;;;-1.04;59.73
77867;BME280;67271;59.120;37.970;2023-05-07T00:24:50;100980.03;;;-1.03;60.28
77867;BME280;67271;59.120;37.970;2023-05-07T00:27:16;100977.47;;;-1.05;59.92
77867;BME280;67271;59.120;37.970;2023-05-07T00:29:42;100981.97;;;-1.05;59.86
77867;BME280;67271;59.120;37.970;2023-05-07T00:32:08;100988.31;;;-1.08;60.35
77867;BME280;67271;59.120;37.970;2023-05-07T00:34:34;100984.06;;;-1.10;60.75
77867;BME280;67271;59.120;37.970;2023-05-07T00:37:01;100980.00;;;-1.16;60.67
77867;BME280;67271;59.120;37.970;2023-05-07T00:39:27;100981.72;;;-1.15;60.71
77867;BME280;67271;59.120;37.970;2023-05-07T00:41:53;100984.47;;;-1.17;60.53
77867;BME280;67271;59.120;37.970;2023-05-07T00:44:18;100979.16;;;-1.17;60.93
77867;BME280;67271;59.120;37.970;2023-05-07T00:46:44;100980.84;;;-1.15;61.22
77867;BME280;67271;59.120;37.970;2023-05-07T00:49:11;100987.88;;;-1.14;60.83
77867;BME280;67271;59.120;37.970;2023-05-07T00:51:37;100988.06;;;-1.18;61.03
77867;BME280;67271;59.120;37.970;2023-05-07T00:54:03;100983.94;;;-1.22;61.09
77867;BME280;67271;59.120;37.970;2023-05-07T00:56:29;100989.59;;;-1.13;61.74
77867;BME280;67271;59.120;37.970;2023-05-07T00:58:55;100990.47;;;-1.00;61.19
77867;BME280;67271;59.120;37.970;2023-05-07T01:01:21;100987.19;;;-0.91;60.99
77867;BME280;67271;59.120;37.970;2023-05-07T01:03:48;100986.97;;;-0.88;61.12
77867;BME280;67271;59.120;37.970;2023-05-07T01:06:14;100989.00;;;-0.92;61.03
77867;BME280;67271;59.120;37.970;2023-05-07T01:08:42;100986.63;;;-0.96;61.68
77867;BME280;67271;59.120;37.970;2023-05-07T01:11:09;100988.09;;;-1.05;61.79
77867;BME280;67271;59.120;37.970;2023-05-07T01:13:36;100988.41;;;-1.09;61.99
77867;BME280;67271;59.120;37.970;2023-05-07T01:16:03;100989.25;;;-1.09;61.44
77867;BME280;67271;59.120;37.970;2023-05-07T01:18:29;100983.94;;;-1.09;61.73
77867;BME280;67271;59.120;37.970;2023-05-07T01:20:58;100989.06;;;-1.06;62.14
77867;BME280;67271;59.120;37.970;2023-05-07T01:23:25;100992.78;;;-1.08;61.86
77867;BME280;67271;59.120;37.970;2023-05-07T01:25:54;100995.25;;;-1.05;62.23
77867;BME280;67271;59.120;37.970;2023-05-07T01:28:22;101000.31;;;-1.02;61.99
77867;BME280;67271;59.120;37.970;2023-05-07T01:30:54;100989.94;;;-1.05;62.34
77867;BME280;67271;59.120;37.970;2023-05-07T01:33:23;100996.06;;;-1.05;62.98
77867;BME280;67271;59.120;37.970;2023-05-07T01:35:53;100991.72;;;-1.06;62.73
77867;BME280;67271;59.120;37.970;2023-05-07T01:38:21;101000.13;;;-0.99;62.30
77867;BME280;67271;59.120;37.970;2023-05-07T01:40:48;100996.31;;;-0.95;62.63
77867;BME280;67271;59.120;37.970;2023-05-07T01:43:14;100990.03;;;-0.94;62.65
77867;BME280;67271;59.120;37.970;2023-05-07T01:45:41;100993.56;;;-0.94;62.50
77867;BME280;67271;59.120;37.970;2023-05-07T01:48:09;101001.53;;;-0.94;62.72
77867;BME280;67271;59.120;37.970;2023-05-07T01:50:35;100998.88;;;-0.94;62.93
77867;BME280;67271;59.120;37.970;2023-05-07T01:53:02;100999.50;;;-0.90;63.15
77867;BME280;67271;59.120;37.970;2023-05-07T01:55:28;101001.66;;;-0.83;62.92
77867;BME280;67271;59.120;37.970;2023-05-07T01:57:54;101005.28;;;-0.71;62.56
77867;BME280;67271;59.120;37.970;2023-05-07T02:00:20;101007.34;;;-0.62;62.31
77867;BME280;67271;59.120;37.970;2023-05-07T02:02:46;101007.34;;;-0.49;62.35
77867;BME280;67271;59.120;37.970;2023-05-07T02:05:39;101009.88;;;-0.22;61.60
77867;BME280;67271;59.120;37.970;2023-05-07T02:08:12;101015.00;;;0.06;61.31
77867;BME280;67271;59.120;37.970;2023-05-07T02:10:38;101003.03;;;0.37;60.96
77867;BME280;67271;59.120;37.970;2023-05-07T02:13:05;101009.22;;;0.61;60.63
77867;BME280;67271;59.120;37.970;2023-05-07T02:15:31;101007.91;;;0.91;59.93
77867;BME280;67271;59.120;37.970;2023-05-07T02:20:28;100996.47;;;1.36;59.32
77867;BME280;67271;59.120;37.970;2023-05-07T02:22:55;100992.56;;;1.29;60.30
77867;BME280;67271;59.120;37.970;2023-05-07T02:25:21;100989.03;;;1.17;60.98
77867;BME280;67271;59.120;37.970;2023-05-07T02:27:47;100990.22;;;1.13;61.39
77867;BME280;67271;59.120;37.970;2023-05-07T02:30:14;100998.00;;;1.16;62.03
77867;BME280;67271;59.120;37.970;2023-05-07T02:32:40;100992.44;;;1.20;61.94
77867;BME280;67271;59.120;37.970;2023-05-07T02:35:06;100986.63;;;1.26;62.16
77867;BME280;67271;59.120;37.970;2023-05-07T02:37:32;100994.91;;;1.34;62.53
77867;BME280;67271;59.120;37.970;2023-05-07T02:39:58;100993.09;;;1.34;62.87
77867;BME280;67271;59.120;37.970;2023-05-07T02:42:24;100989.06;;;1.29;63.32
77867;BME280;67271;59.120;37.970;2023-05-07T02:44:50;100996.78;;;1.21;64.06
77867;BME280;67271;59.120;37.970;2023-05-07T02:47:16;100992.38;;;1.08;64.29
77867;BME280;67271;59.120;37.970;2023-05-07T02:49:43;100990.19;;;1.02;64.40
77867;BME280;67271;59.120;37.970;2023-05-07T02:52:09;100987.16;;;1.07;64.53
77867;BME280;67271;59.120;37.970;2023-05-07T02:54:35;100991.31;;;1.11;64.51
77867;BME280;67271;59.120;37.970;2023-05-07T02:57:01;100988.94;;;1.30;64.23
77867;BME280;67271;59.120;37.970;2023-05-07T02:59:27;100978.44;;;3.26;59.63
77867;BME280;67271;59.120;37.970;2023-05-07T03:01:53;100973.19;;;5.54;54.42
77867;BME280;67271;59.120;37.970;2023-05-07T03:04:20;100972.69;;;6.96;51.73
77867;BME280;67271;59.120;37.970;2023-05-07T03:06:46;100967.94;;;6.45;52.73
77867;BME280;67271;59.120;37.970;2023-05-07T03:09:12;100976.91;;;6.36;53.78
77867;BME280;67271;59.120;37.970;2023-05-07T03:11:38;100972.56;;;8.45;50.00
77867;BME280;67271;59.120;37.970;2023-05-07T03:14:04;100980.81;;;9.99;47.40
77867;BME280;67271;59.120;37.970;2023-05-07T03:16:30;100973.25;;;11.11;45.64
77867;BME280;67271;59.120;37.970;2023-05-07T03:18:56;100984.38;;;11.39;45.62
77867;BME280;67271;59.120;37.970;2023-05-07T03:21:22;100987.25;;;11.60;45.49
77867;BME280;67271;59.120;37.970;2023-05-07T03:23:48;100982.69;;;12.28;44.43
77867;BME280;67271;59.120;37.970;2023-05-07T03:26:14;100972.53;;;13.16;43.13
77867;BME280;67271;59.120;37.970;2023-05-07T03:28:41;100979.56;;;14.03;42.37
77867;BME280;67271;59.120;37.970;2023-05-07T03:31:11;100972.63;;;14.69;40.98
77867;BME280;67271;59.120;37.970;2023-05-07T03:33:49;100975.44;;;14.89;40.59
77867;BME280;67271;59.120;37.970;2023-05-07T03:36:16;100973.44;;;15.10;40.44
77867;BME280;67271;59.120;37.970;2023-05-07T03:38:42;100981.59;;;15.10;40.54
77867;BME280;67271;59.120;37.970;2023-05-07T03:41:09;100975.13;;;15.25;40.10
77867;BME280;67271;59.120;37.970;2023-05-07T03:43:35;100987.75;;;15.39;39.07
77867;BME280;67271;59.120;37.970;2023-05-07T03:46:06;100990.13;;;14.88;40.43
77867;BME280;67271;59.120;37.970;2023-05-07T03:48:32;100996.50;;;14.67;40.54
77867;BME280;67271;59.120;37.970;2023-05-07T03:50:59;100992.69;;;15.02;39.89
77867;BME280;67271;59.120;37.970;2023-05-07T03:53:29;101000.16;;;14.81;39.66
77867;BME280;67271;59.120;37.970;2023-05-07T03:55:55;101001.72;;;15.09;39.03
77867;BME280;67271;59.120;37.970;2023-05-07T03:58:21;100999.97;;;15.96;37.74
77867;BME280;67271;59.120;37.970;2023-05-07T04:00:47;101002.88;;;16.20;37.34
77867;BME280;67271;59.120;37.970;2023-05-07T04:03:22;101002.81;;;16.53;36.65
77867;BME280;67271;59.120;37.970;2023-05-07T04:05:48;101006.25;;;16.09;36.72
77867;BME280;67271;59.120;37.970;2023-05-07T04:08:14;101002.69;;;16.22;36.13
77867;BME280;67271;59.120;37.970;2023-05-07T04:10:45;101004.19;;;15.92;35.84
77867;BME280;67271;59.120;37.970;2023-05-07T04:13:12;101011.94;;;15.68;35.54
77867;BME280;67271;59.120;37.970;2023-05-07T04:15:38;101010.47;;;15.79;35.40
77867;BME280;67271;59.120;37.970;2023-05-07T04:18:08;101011.28;;;15.79;34.99
77867;BME280;67271;59.120;37.970;2023-05-07T04:20:35;101009.66;;;15.78;34.84
77867;BME280;67271;59.120;37.970;2023-05-07T04:23:07;101005.63;;;15.74;34.67
77867;BME280;67271;59.120;37.970;2023-05-07T04:25:33;101011.94;;;15.88;34.18
77867;BME280;67271;59.120;37.970;2023-05-07T04:28:07;101010.66;;;16.30;33.78
77867;BME280;67271;59.120;37.970;2023-05-07T04:30:33;101008.91;;;16.69;33.43
77867;BME280;67271;59.120;37.970;2023-05-07T04:32:59;101012.47;;;16.62;33.35
77867;BME280;67271;59.120;37.970;2023-05-07T04:35:27;101008.09;;;17.13;32.78
77867;BME280;67271;59.120;37.970;2023-05-07T04:37:53;101006.81;;;17.78;31.94
77867;BME280;67271;59.120;37.970;2023-05-07T04:40:19;101013.69;;;18.12;31.85
77867;BME280;67271;59.120;37.970;2023-05-07T04:42:45;101013.19;;;18.22;31.53
77867;BME280;67271;59.120;37.970;2023-05-07T04:45:12;101023.88;;;17.80;31.61
77867;BME280;67271;59.120;37.970;2023-05-07T04:47:40;101019.19;;;17.87;31.52
77867;BME280;67271;59.120;37.970;2023-05-07T04:50:07;101019.56;;;17.66;31.58
77867;BME280;67271;59.120;37.970;2023-05-07T04:52:34;101016.69;;;17.48;31.49
77867;BME280;67271;59.120;37.970;2023-05-07T04:55:00;101011.56;;;17.26;31.76
77867;BME280;67271;59.120;37.970;2023-05-07T04:57:29;101019.88;;;17.07;32.29
77867;BME280;67271;59.120;37.970;2023-05-07T04:59:55;101016.38;;;17.69;31.59
77867;BME280;67271;59.120;37.970;2023-05-07T05:02:21;101025.72;;;17.86;31.17
77867;BME280;67271;59.120;37.970;2023-05-07T05:04:47;101034.47;;;16.87;31.94
77867;BME280;67271;59.120;37.970;2023-05-07T05:07:13;101027.53;;;16.85;31.95
77867;BME280;67271;59.120;37.970;2023-05-07T05:09:39;101025.16;;;17.39;31.29
77867;BME280;67271;59.120;37.970;2023-05-07T05:12:05;101024.41;;;17.26;31.28
77867;BME280;67271;59.120;37.970;2023-05-07T05:14:34;101028.63;;;17.22;31.15
77867;BME280;67271;59.120;37.970;2023-05-07T05:17:00;101031.06;;;17.43;30.65
77867;BME280;67271;59.120;37.970;2023-05-07T05:19:26;101027.03;;;17.46;30.86
77867;BME280;67271;59.120;37.970;2023-05-07T05:21:51;101030.50;;;17.66;30.30
77867;BME280;67271;59.120;37.970;2023-05-07T05:24:17;101030.28;;;17.67;30.12
77867;BME280;67271;59.120;37.970;2023-05-07T05:26:44;101032.91;;;17.49;30.32
77867;BME280;67271;59.120;37.970;2023-05-07T05:29:10;101031.31;;;17.35;30.34
77867;BME280;67271;59.120;37.970;2023-05-07T05:31:39;101026.31;;;16.74;30.78
77867;BME280;67271;59.120;37.970;2023-05-07T05:34:05;101032.69;;;16.42;30.95
77867;BME280;67271;59.120;37.970;2023-05-07T05:36:31;101021.63;;;17.32;30.12
77867;BME280;67271;59.120;37.970;2023-05-07T05:38:58;101025.22;;;17.71;29.67
77867;BME280;67271;59.120;37.970;2023-05-07T05:41:24;101031.56;;;17.90;29.48
77867;BME280;67271;59.120;37.970;2023-05-07T05:43:50;101026.09;;;17.90;29.39
77867;BME280;67271;59.120;37.970;2023-05-07T05:46:17;101034.88;;;16.97;30.23
77867;BME280;67271;59.120;37.970;2023-05-07T05:48:43;101038.47;;;17.36;29.57
77867;BME280;67271;59.120;37.970;2023-05-07T05:51:10;101048.28;;;15.08;31.72
77867;BME280;67271;59.120;37.970;2023-05-07T05:53:36;101039.63;;;13.01;34.24
77867;BME280;67271;59.120;37.970;2023-05-07T05:56:03;101044.47;;;12.55;34.35
77867;BME280;67271;59.120;37.970;2023-05-07T05:58:30;101048.84;;;11.44;35.84
77867;BME280;67271;59.120;37.970;2023-05-07T06:01:00;101040.78;;;12.92;33.98
77867;BME280;67271;59.120;37.970;2023-05-07T06:03:29;101044.72;;;12.90;33.32
77867;BME280;67271;59.120;37.970;2023-05-07T06:05:58;101049.94;;;12.03;34.95
77867;BME280;67271;59.120;37.970;2023-05-07T06:08:28;101056.66;;;13.61;32.52
77867;BME280;67271;59.120;37.970;2023-05-07T06:10:54;101061.28;;;12.95;33.20
77867;BME280;67271;59.120;37.970;2023-05-07T06:13:21;101063.69;;;11.56;35.22
77867;BME280;67271;59.120;37.970;2023-05-07T06:15:46;101061.06;;;10.86;35.79
77867;BME280;67271;59.120;37.970;2023-05-07T06:18:13;101060.56;;;9.95;36.70
77867;BME280;67271;59.120;37.970;2023-05-07T06:20:40;101068.31;;;9.41;37.40
77867;BME280;67271;59.120;37.970;2023-05-07T06:23:11;101066.31;;;9.59;37.13
77867;BME280;67271;59.120;37.970;2023-05-07T06:25:37;101068.34;;;10.06;36.69
77867;BME280;67271;59.120;37.970;2023-05-07T06:28:03;101054.75;;;12.16;33.75
77867;BME280;67271;59.120;37.970;2023-05-07T06:30:32;101061.47;;;13.08;32.79
77867;BME280;67271;59.120;37.970;2023-05-07T06:32:58;101048.31;;;13.26;32.36
77867;BME280;67271;59.120;37.970;2023-05-07T06:35:25;101059.31;;;13.75;32.09
77867;BME280;67271;59.120;37.970;2023-05-07T06:37:52;101051.34;;;13.16;32.71
77867;BME280;67271;59.120;37.970;2023-05-07T06:40:22;101061.34;;;11.53;34.53
77867;BME280;67271;59.120;37.970;2023-05-07T06:42:48;101067.59;;;11.00;35.49
77867;BME280;67271;59.120;37.970;2023-05-07T06:45:37;101075.47;;;10.07;36.16
77867;BME280;67271;59.120;37.970;2023-05-07T06:48:05;101073.47;;;10.72;35.44
77867;BME280;67271;59.120;37.970;2023-05-07T06:50:35;101066.97;;;11.74;33.83
77867;BME280;67271;59.120;37.970;2023-05-07T06:53:01;101066.91;;;13.08;32.49
77867;BME280;67271;59.120;37.970;2023-05-07T06:55:28;101048.75;;;13.66;32.28
77867;BME280;67271;59.120;37.970;2023-05-07T06:57:55;101056.84;;;13.08;33.00
77867;BME280;67271;59.120;37.970;2023-05-07T07:00:23;101071.50;;;11.51;34.62
77867;BME280;67271;59.120;37.970;2023-05-07T07:02:54;101075.09;;;10.26;36.61
77867;BME280;67271;59.120;37.970;2023-05-07T07:05:22;101072.41;;;10.18;36.64
77867;BME280;67271;59.120;37.970;2023-05-07T07:07:49;101077.28;;;10.31;36.28
77867;BME280;67271;59.120;37.970;2023-05-07T07:10:21;101075.44;;;9.66;36.79
77867;BME280;67271;59.120;37.970;2023-05-07T07:12:49;101078.31;;;9.65;36.66
77867;BME280;67271;59.120;37.970;2023-05-07T07:15:15;101061.03;;;10.94;35.00
77867;BME280;67271;59.120;37.970;2023-05-07T07:17:42;101071.56;;;10.81;35.26
77867;BME280;67271;59.120;37.970;2023-05-07T07:20:08;101073.38;;;11.50;34.20
77867;BME280;67271;59.120;37.970;2023-05-07T07:22:34;101071.00;;;11.24;34.86
77867;BME280;67271;59.120;37.970;2023-05-07T07:25:00;101072.09;;;11.38;34.31
77867;BME280;67271;59.120;37.970;2023-05-07T07:27:26;101084.13;;;10.74;35.78
77867;BME280;67271;59.120;37.970;2023-05-07T07:29:52;101081.56;;;9.85;36.77
77867;BME280;67271;59.120;37.970;2023-05-07T07:32:18;101079.09;;;9.25;37.70
77867;BME280;67271;59.120;37.970;2023-05-07T07:34:45;101077.13;;;10.08;36.73
77867;BME280;67271;59.120;37.970;2023-05-07T07:37:11;101079.97;;;10.94;36.51
77867;BME280;67271;59.120;37.970;2023-05-07T07:39:37;101071.16;;;11.99;35.51
77867;BME280;67271;59.120;37.970;2023-05-07T07:42:04;101080.63;;;12.70;34.67
77867;BME280;67271;59.120;37.970;2023-05-07T07:44:32;101080.44;;;12.05;35.20
77867;BME280;67271;59.120;37.970;2023-05-07T07:47:03;101084.25;;;11.19;36.16
77867;BME280;67271;59.120;37.970;2023-05-07T07:49:29;101078.09;;;10.47;36.57
77867;BME280;67271;59.120;37.970;2023-05-07T07:51:57;101075.78;;;9.88;37.20
77867;BME280;67271;59.120;37.970;2023-05-07T07:54:25;101083.03;;;9.63;37.21
77867;BME280;67271;59.120;37.970;2023-05-07T07:56:52;101084.88;;;9.38;37.06
77867;BME280;67271;59.120;37.970;2023-05-07T07:59:18;101074.56;;;9.33;37.11
77867;BME280;67271;59.120;37.970;2023-05-07T08:01:45;101070.38;;;9.71;36.51
77867;BME280;67271;59.120;37.970;2023-05-07T08:04:14;101077.63;;;10.12;35.43
77867;BME280;67271;59.120;37.970;2023-05-07T08:06:41;101071.88;;;10.31;35.14
77867;BME280;67271;59.120;37.970;2023-05-07T08:09:08;101081.19;;;9.80;35.76
77867;BME280;67271;59.120;37.970;2023-05-07T08:11:35;101078.16;;;9.58;36.46
77867;BME280;67271;59.120;37.970;2023-05-07T08:14:02;101094.38;;;9.83;35.87
77867;BME280;67271;59.120;37.970;2023-05-07T08:16:28;101094.34;;;9.50;35.54
77867;BME280;67271;59.120;37.970;2023-05-07T08:18:54;101081.16;;;9.39;36.06
77867;BME280;67271;59.120;37.970;2023-05-07T08:21:20;101091.25;;;9.29;36.12
77867;BME280;67271;59.120;37.970;2023-05-07T08:23:46;101091.03;;;9.06;36.37
77867;BME280;67271;59.120;37.970;2023-05-07T08:26:12;101095.84;;;8.86;36.76
77867;BME280;67271;59.120;37.970;2023-05-07T08:28:38;101089.38;;;9.21;36.72
77867;BME280;67271;59.120;37.970;2023-05-07T08:31:05;101087.13;;;9.83;35.74
77867;BME280;67271;59.120;37.970;2023-05-07T08:33:35;101087.94;;;10.24;34.87
77867;BME280;67271;59.120;37.970;2023-05-07T08:36:01;101085.84;;;10.67;34.72
77867;BME280;67271;59.120;37.970;2023-05-07T08:38:27;101075.19;;;11.04;34.20
77867;BME280;67271;59.120;37.970;2023-05-07T08:40:53;101083.53;;;11.25;33.88
77867;BME280;67271;59.120;37.970;2023-05-07T08:43:21;101087.75;;;10.50;35.01
77867;BME280;67271;59.120;37.970;2023-05-07T08:45:49;101098.09;;;9.98;34.94
77867;BME280;67271;59.120;37.970;2023-05-07T08:48:22;101090.16;;;9.80;35.11
77867;BME280;67271;59.120;37.970;2023-05-07T08:50:58;101104.69;;;9.87;35.24
77867;BME280;67271;59.120;37.970;2023-05-07T08:53:24;101100.47;;;9.77;35.53
77867;BME280;67271;59.120;37.970;2023-05-07T08:55:51;101095.69;;;9.38;36.13
77867;BME280;67271;59.120;37.970;2023-05-07T08:58:17;101089.09;;;9.41;36.12
77867;BME280;67271;59.120;37.970;2023-05-07T09:00:43;101097.81;;;9.18;37.03
77867;BME280;67271;59.120;37.970;2023-05-07T09:03:10;101102.06;;;9.29;36.81
77867;BME280;67271;59.120;37.970;2023-05-07T09:05:43;101094.19;;;9.60;36.59
77867;BME280;67271;59.120;37.970;2023-05-07T09:08:14;101103.34;;;9.91;36.49
77867;BME280;67271;59.120;37.970;2023-05-07T09:10:41;101091.28;;;10.59;35.42
77867;BME280;67271;59.120;37.970;2023-05-07T09:13:08;101095.72;;;10.43;35.57
77867;BME280;67271;59.120;37.970;2023-05-07T09:15:36;101099.75;;;10.47;35.21
77867;BME280;67271;59.120;37.970;2023-05-07T09:18:02;101100.25;;;9.70;35.49
77867;BME280;67271;59.120;37.970;2023-05-07T09:20:32;101099.78;;;8.66;36.67
77867;BME280;67271;59.120;37.970;2023-05-07T09:22:59;101098.28;;;8.64;36.57
77867;BME280;67271;59.120;37.970;2023-05-07T09:25:30;101093.13;;;9.28;35.37
77867;BME280;67271;59.120;37.970;2023-05-07T09:28:00;101077.97;;;9.92;34.23
77867;BME280;67271;59.120;37.970;2023-05-07T09:30:30;101092.34;;;10.01;33.32
77867;BME280;67271;59.120;37.970;2023-05-07T09:32:59;101083.41;;;9.76;33.75
77867;BME280;67271;59.120;37.970;2023-05-07T09:35:26;101082.19;;;9.79;33.89
77867;BME280;67271;59.120;37.970;2023-05-07T09:38:01;101095.69;;;9.62;33.90
77867;BME280;67271;59.120;37.970;2023-05-07T09:40:30;101087.28;;;9.74;33.37
77867;BME280;67271;59.120;37.970;2023-05-07T09:43:13;101089.47;;;9.86;33.27
77867;BME280;67271;59.120;37.970;2023-05-07T09:45:46;101099.94;;;9.73;33.80
77867;BME280;67271;59.120;37.970;2023-05-07T09:48:18;101104.16;;;9.59;33.89
77867;BME280;67271;59.120;37.970;2023-05-07T09:50:48;101102.13;;;9.45;34.02
77867;BME280;67271;59.120;37.970;2023-05-07T09:53:17;101104.03;;;9.11;34.34
77867;BME280;67271;59.120;37.970;2023-05-07T09:55:43;101108.03;;;8.99;34.99
77867;BME280;67271;59.120;37.970;2023-05-07T09:58:12;101096.75;;;9.61;33.98
77867;BME280;67271;59.120;37.970;2023-05-07T10:00:39;101096.31;;;10.62;33.13
77867;BME280;67271;59.120;37.970;2023-05-07T10:03:10;101093.53;;;10.86;32.53
77867;BME280;67271;59.120;37.970;2023-05-07T10:05:51;101101.31;;;10.26;33.52
77867;BME280;67271;59.120;37.970;2023-05-07T10:08:19;101098.09;;;9.82;34.21
77867;BME280;67271;59.120;37.970;2023-05-07T10:10:47;101107.56;;;10.10;33.83
77867;BME280;67271;59.120;37.970;2023-05-07T10:13:19;101115.34;;;10.37;32.87
77867;BME280;67271;59.120;37.970;2023-05-07T10:15:47;101108.03;;;10.38;32.89
77867;BME280;67271;59.120;37.970;2023-05-07T10:18:14;101110.09;;;10.36;32.83
77867;BME280;67271;59.120;37.970;2023-05-07T10:20:42;101105.53;;;9.80;32.87
77867;BME280;67271;59.120;37.970;2023-05-07T10:23:13;101119.59;;;9.17;33.34
77867;BME280;67271;59.120;37.970;2023-05-07T10:25:43;101119.16;;;8.96;33.45
77867;BME280;67271;59.120;37.970;2023-05-07T10:28:18;101116.56;;;8.78;33.11
77867;BME280;67271;59.120;37.970;2023-05-07T10:31:01;101128.06;;;8.54;33.68
77867;BME280;67271;59.120;37.970;2023-05-07T10:33:37;101117.13;;;8.56;33.76
77867;BME280;67271;59.120;37.970;2023-05-07T10:36:05;101118.72;;;8.74;33.38
77867;BME280;67271;59.120;37.970;2023-05-07T10:38:33;101101.94;;;9.39;32.67
77867;BME280;67271;59.120;37.970;2023-05-07T10:41:01;101106.56;;;10.19;31.43
77867;BME280;67271;59.120;37.970;2023-05-07T10:43:43;101103.09;;;10.66;31.17
77867;BME280;67271;59.120;37.970;2023-05-07T10:46:17;101107.59;;;11.20;30.94
77867;BME280;67271;59.120;37.970;2023-05-07T10:51:35;101096.19;;;10.47;30.05
77867;BME280;67271;59.120;37.970;2023-05-07T10:56:40;101116.06;;;9.16;30.94
77867;BME280;67271;59.120;37.970;2023-05-07T11:01:58;101127.72;;;8.57;31.07
77867;BME280;67271;59.120;37.970;2023-05-07T11:04:36;101128.41;;;8.85;31.12
77867;BME280;67271;59.120;37.970;2023-05-07T11:07:26;101123.00;;;9.35;30.52
77867;BME280;67271;59.120;37.970;2023-05-07T11:09:55;101121.22;;;10.08;29.95
77867;BME280;67271;59.120;37.970;2023-05-07T11:12:50;101121.41;;;10.31;29.18
77867;BME280;67271;59.120;37.970;2023-05-07T11:15:35;101126.00;;;9.98;29.03
77867;BME280;67271;59.120;37.970;2023-05-07T11:18:02;101128.94;;;9.39;29.22
77867;BME280;67271;59.120;37.970;2023-05-07T11:20:58;101144.03;;;9.07;29.44
77867;BME280;67271;59.120;37.970;2023-05-07T11:23:54;101145.50;;;8.93;29.71
77867;BME280;67271;59.120;37.970;2023-05-07T11:26:28;101139.56;;;9.40;29.83
77867;BME280;67271;59.120;37.970;2023-05-07T11:28:54;101144.53;;;9.61;29.70
77867;BME280;67271;59.120;37.970;2023-05-07T11:31:24;101143.44;;;8.96;30.10
77867;BME280;67271;59.120;37.970;2023-05-07T11:33:53;101143.66;;;8.68;30.27
77867;BME280;67271;59.120;37.970;2023-05-07T11:36:23;101141.81;;;8.69;30.47
77867;BME280;67271;59.120;37.970;2023-05-07T11:38:51;101134.66;;;8.85;30.68
77867;BME280;67271;59.120;37.970;2023-05-07T11:41:17;101130.06;;;9.20;30.05
77867;BME280;67271;59.120;37.970;2023-05-07T11:43:58;101141.19;;;9.17;29.78
77867;BME280;67271;59.120;37.970;2023-05-07T11:46:26;101127.78;;;9.57;29.24
77867;BME280;67271;59.120;37.970;2023-05-07T11:48:52;101147.66;;;9.40;29.09
77867;BME280;67271;59.120;37.970;2023-05-07T11:51:22;101147.53;;;9.00;30.23
77867;BME280;67271;59.120;37.970;2023-05-07T11:53:49;101154.16;;;8.71;30.51
77867;BME280;67271;59.120;37.970;2023-05-07T11:56:17;101153.91;;;8.39;30.83
77867;BME280;67271;59.120;37.970;2023-05-07T11:58:44;101156.47;;;8.05;31.08
77867;BME280;67271;59.120;37.970;2023-05-07T12:01:12;101166.97;;;7.90;31.23
77867;BME280;67271;59.120;37.970;2023-05-07T12:03:42;101157.03;;;7.91;30.67
77867;BME280;67271;59.120;37.970;2023-05-07T12:06:09;101166.03;;;7.99;30.68
77867;BME280;67271;59.120;37.970;2023-05-07T12:08:38;101157.56;;;7.94;30.82
77867;BME280;67271;59.120;37.970;2023-05-07T12:11:07;101162.63;;;7.97;30.64
77867;BME280;67271;59.120;37.970;2023-05-07T12:13:34;101159.25;;;8.31;30.45
77867;BME280;67271;59.120;37.970;2023-05-07T12:16:00;101165.22;;;8.42;30.38
77867;BME280;67271;59.120;37.970;2023-05-07T12:18:28;101170.47;;;8.44;30.32
77867;BME280;67271;59.120;37.970;2023-05-07T12:20:55;101165.13;;;8.52;30.14
77867;BME280;67271;59.120;37.970;2023-05-07T12:23:22;101169.28;;;8.72;30.02
77867;BME280;67271;59.120;37.970;2023-05-07T12:25:48;101168.41;;;8.89;30.18
77867;BME280;67271;59.120;37.970;2023-05-07T12:28:15;101170.88;;;8.57;30.79
77867;BME280;67271;59.120;37.970;2023-05-07T12:30:46;101165.63;;;8.30;31.04
77867;BME280;67271;59.120;37.970;2023-05-07T12:33:23;101155.25;;;8.17;31.09
77867;BME280;67271;59.120;37.970;2023-05-07T12:35:49;101162.25;;;8.10;31.13
77867;BME280;67271;59.120;37.970;2023-05-07T12:38:16;101159.84;;;8.25;31.03
77867;BME280;67271;59.120;37.970;2023-05-07T12:40:50;101157.69;;;8.46;30.28
77867;BME280;67271;59.120;37.970;2023-05-07T12:43:20;101161.25;;;8.80;30.11
77867;BME280;67271;59.120;37.970;2023-05-07T12:45:49;101158.13;;;8.93;29.97
77867;BME280;67271;59.120;37.970;2023-05-07T12:48:16;101154.97;;;9.06;29.48
77867;BME280;67271;59.120;37.970;2023-05-07T12:50:42;101147.19;;;9.03;29.54
77867;BME280;67271;59.120;37.970;2023-05-07T12:53:11;101158.03;;;9.11;29.11
77867;BME280;67271;59.120;37.970;2023-05-07T12:55:46;101164.72;;;8.99;29.57
77867;BME280;67271;59.120;37.970;2023-05-07T12:58:30;101158.19;;;9.01;29.67
77867;BME280;67271;59.120;37.970;2023-05-07T13:00:57;101176.03;;;9.02;29.76
77867;BME280;67271;59.120;37.970;2023-05-07T13:03:28;101162.34;;;8.96;30.33
77867;BME280;67271;59.120;37.970;2023-05-07T13:05:57;101163.78;;;9.08;30.07